sensor_id;sensor_type;location;lat;lon;timestamp;P1;durP1;ratioP1;P2;durP2;ratioP2
35223;SDS011;21367;51.930;8.112;2023-04-01T00:00:27;8.90;;;1.52;;
35223;SDS011;21367;51.930;8.112;2023-04-01T00:05:33;11.40;;;2.67;;
35223;SDS011;21367;51.930;8.112;2023-04-01T00:10:37;7.40;;;1.58;;
35223;SDS011;21367;51.930;8.112;2023-04-01T00:15:41;3.33;;;1.02;;
35223;SDS011;21367;51.930;8.112;2023-04-01T00:20:48;7.38;;;1.02;;
35223;SDS011;21367;51.930;8.112;2023-04-01T00:25:54;4.93;;;1.20;;
35223;SDS011;21367;51.930;8.112;2023-04-01T00:30:57;4.13;;;1.10;;
35223;SDS011;21367;51.930;8.112;2023-04-01T00:36:11;7.63;;;1.60;;
35223;SDS011;21367;51.930;8.112;2023-04-01T00:41:16;5.30;;;1.23;;
35223;SDS011;21367;51.930;8.112;2023-04-01T00:46:21;7.27;;;1.20;;
35223;SDS011;21367;51.930;8.112;2023-04-01T00:51:28;7.20;;;0.90;;
35223;SDS011;21367;51.930;8.112;2023-04-01T00:56:33;5.05;;;1.10;;
35223;SDS011;21367;51.930;8.112;2023-04-01T01:01:40;8.48;;;1.85;;
35223;SDS011;21367;51.930;8.112;2023-04-01T01:06:49;6.97;;;1.02;;
35223;SDS011;21367;51.930;8.112;2023-04-01T01:12:02;4.32;;;0.93;;
35223;SDS011;21367;51.930;8.112;2023-04-01T01:17:12;6.75;;;0.77;;
35223;SDS011;21367;51.930;8.112;2023-04-01T01:22:34;3.53;;;0.90;;
35223;SDS011;21367;51.930;8.112;2023-04-01T01:27:49;5.77;;;0.90;;
35223;SDS011;21367;51.930;8.112;2023-04-01T01:39:08;7.35;;;0.70;;
35223;SDS011;21367;51.930;8.112;2023-04-01T01:44:13;4.35;;;0.80;;
35223;SDS011;21367;51.930;8.112;2023-04-01T01:49:19;5.35;;;0.75;;
35223;SDS011;21367;51.930;8.112;2023-04-01T01:54:26;6.38;;;0.90;;
35223;SDS011;21367;51.930;8.112;2023-04-01T01:59:33;6.90;;;0.80;;
35223;SDS011;21367;51.930;8.112;2023-04-01T02:04:41;6.30;;;0.70;;
35223;SDS011;21367;51.930;8.112;2023-04-01T02:09:50;9.30;;;1.08;;
35223;SDS011;21367;51.930;8.112;2023-04-01T02:14:56;3.78;;;0.95;;
35223;SDS011;21367;51.930;8.112;2023-04-01T02:20:06;3.45;;;0.57;;
35223;SDS011;21367;51.930;8.112;2023-04-01T02:25:18;3.58;;;0.77;;
35223;SDS011;21367;51.930;8.112;2023-04-01T02:30:25;3.58;;;0.65;;
35223;SDS011;21367;51.930;8.112;2023-04-01T02:35:30;2.83;;;0.60;;
35223;SDS011;21367;51.930;8.112;2023-04-01T02:40:49;4.80;;;0.80;;
35223;SDS011;21367;51.930;8.112;2023-04-01T02:45:54;2.70;;;0.60;;
35223;SDS011;21367;51.930;8.112;2023-04-01T02:50:58;3.30;;;0.50;;
35223;SDS011;21367;51.930;8.112;2023-04-01T02:56:04;5.28;;;0.55;;
35223;SDS011;21367;51.930;8.112;2023-04-01T03:01:08;2.70;;;0.65;;
35223;SDS011;21367;51.930;8.112;2023-04-01T03:06:13;2.00;;;0.52;;
35223;SDS011;21367;51.930;8.112;2023-04-01T03:16:26;4.00;;;0.90;;
35223;SDS011;21367;51.930;8.112;2023-04-01T03:21:29;1.98;;;0.40;;
35223;SDS011;21367;51.930;8.112;2023-04-01T03:26:37;2.80;;;0.82;;
35223;SDS011;21367;51.930;8.112;2023-04-01T03:31:41;5.65;;;0.65;;
35223;SDS011;21367;51.930;8.112;2023-04-01T03:36:44;2.28;;;0.63;;
35223;SDS011;21367;51.930;8.112;2023-04-01T03:41:51;2.45;;;0.50;;
35223;SDS011;21367;51.930;8.112;2023-04-01T03:51:58;2.55;;;0.40;;
35223;SDS011;21367;51.930;8.112;2023-04-01T03:57:04;5.20;;;0.55;;
35223;SDS011;21367;51.930;8.112;2023-04-01T04:02:08;1.13;;;0.50;;
35223;SDS011;21367;51.930;8.112;2023-04-01T04:07:14;3.20;;;0.30;;
35223;SDS011;21367;51.930;8.112;2023-04-01T04:12:39;1.60;;;0.40;;
35223;SDS011;21367;51.930;8.112;2023-04-01T04:17:44;1.92;;;0.40;;
35223;SDS011;21367;51.930;8.112;2023-04-01T04:22:49;3.30;;;0.40;;
35223;SDS011;21367;51.930;8.112;2023-04-01T04:27:55;2.67;;;0.50;;
35223;SDS011;21367;51.930;8.112;2023-04-01T04:32:59;1.90;;;0.30;;
35223;SDS011;21367;51.930;8.112;2023-04-01T04:38:02;5.18;;;0.50;;
35223;SDS011;21367;51.930;8.112;2023-04-01T04:43:09;1.98;;;0.47;;
35223;SDS011;21367;51.930;8.112;2023-04-01T04:48:14;0.85;;;0.30;;
35223;SDS011;21367;51.930;8.112;2023-04-01T04:53:20;0.95;;;0.32;;
35223;SDS011;21367;51.930;8.112;2023-04-01T04:58:28;1.35;;;0.50;;
35223;SDS011;21367;51.930;8.112;2023-04-01T05:03:32;3.20;;;0.60;;
35223;SDS011;21367;51.930;8.112;2023-04-01T05:08:36;1.27;;;0.52;;
35223;SDS011;21367;51.930;8.112;2023-04-01T05:13:43;1.35;;;0.70;;
35223;SDS011;21367;51.930;8.112;2023-04-01T05:18:47;2.38;;;1.05;;
35223;SDS011;21367;51.930;8.112;2023-04-01T05:23:51;1.42;;;0.60;;
35223;SDS011;21367;51.930;8.112;2023-04-01T05:28:58;1.00;;;0.80;;
35223;SDS011;21367;51.930;8.112;2023-04-01T05:39:06;4.25;;;2.20;;
35223;SDS011;21367;51.930;8.112;2023-04-01T05:44:12;2.78;;;1.20;;
35223;SDS011;21367;51.930;8.112;2023-04-01T05:49:16;1.75;;;0.50;;
35223;SDS011;21367;51.930;8.112;2023-04-01T05:54:21;0.95;;;0.70;;
35223;SDS011;21367;51.930;8.112;2023-04-01T05:59:27;3.13;;;1.13;;
35223;SDS011;21367;51.930;8.112;2023-04-01T06:04:32;4.93;;;2.10;;
35223;SDS011;21367;51.930;8.112;2023-04-01T06:09:41;3.88;;;1.20;;
35223;SDS011;21367;51.930;8.112;2023-04-01T06:14:49;4.07;;;1.50;;
35223;SDS011;21367;51.930;8.112;2023-04-01T06:20:02;3.47;;;1.23;;
35223;SDS011;21367;51.930;8.112;2023-04-01T06:25:24;2.20;;;1.52;;
35223;SDS011;21367;51.930;8.112;2023-04-01T06:30:43;2.22;;;1.15;;
35223;SDS011;21367;51.930;8.112;2023-04-01T06:36:01;4.38;;;2.38;;
35223;SDS011;21367;51.930;8.112;2023-04-01T06:41:21;4.47;;;1.90;;
35223;SDS011;21367;51.930;8.112;2023-04-01T06:46:47;6.18;;;2.75;;
35223;SDS011;21367;51.930;8.112;2023-04-01T06:52:15;3.67;;;2.05;;
35223;SDS011;21367;51.930;8.112;2023-04-01T06:57:45;5.78;;;2.40;;
35223;SDS011;21367;51.930;8.112;2023-04-01T07:02:56;5.60;;;2.40;;
35223;SDS011;21367;51.930;8.112;2023-04-01T07:08:08;3.17;;;1.80;;
35223;SDS011;21367;51.930;8.112;2023-04-01T07:13:18;7.13;;;2.00;;
35223;SDS011;21367;51.930;8.112;2023-04-01T07:18:34;4.47;;;1.60;;
35223;SDS011;21367;51.930;8.112;2023-04-01T07:23:42;2.50;;;1.50;;
35223;SDS011;21367;51.930;8.112;2023-04-01T07:29:08;5.88;;;1.30;;
35223;SDS011;21367;51.930;8.112;2023-04-01T07:34:22;1.65;;;1.33;;
35223;SDS011;21367;51.930;8.112;2023-04-01T07:39:31;3.25;;;1.30;;
35223;SDS011;21367;51.930;8.112;2023-04-01T07:45:08;2.88;;;1.27;;
35223;SDS011;21367;51.930;8.112;2023-04-01T07:50:25;2.70;;;1.30;;
35223;SDS011;21367;51.930;8.112;2023-04-01T07:55:32;2.08;;;1.40;;
35223;SDS011;21367;51.930;8.112;2023-04-01T08:00:42;1.40;;;1.10;;
35223;SDS011;21367;51.930;8.112;2023-04-01T08:06:02;1.88;;;1.08;;
35223;SDS011;21367;51.930;8.112;2023-04-01T08:11:17;1.17;;;1.05;;
35223;SDS011;21367;51.930;8.112;2023-04-01T08:16:50;3.60;;;1.20;;
35223;SDS011;21367;51.930;8.112;2023-04-01T08:22:11;2.25;;;1.70;;
35223;SDS011;21367;51.930;8.112;2023-04-01T08:27:23;5.00;;;1.45;;
35223;SDS011;21367;51.930;8.112;2023-04-01T08:32:35;4.30;;;2.50;;
35223;SDS011;21367;51.930;8.112;2023-04-01T08:37:45;5.38;;;1.35;;
35223;SDS011;21367;51.930;8.112;2023-04-01T08:42:57;3.67;;;1.80;;
35223;SDS011;21367;51.930;8.112;2023-04-01T08:54:11;3.05;;;1.33;;
35223;SDS011;21367;51.930;8.112;2023-04-01T08:59:35;5.93;;;2.97;;
35223;SDS011;21367;51.930;8.112;2023-04-01T09:10:48;3.75;;;1.08;;
35223;SDS011;21367;51.930;8.112;2023-04-01T09:27:29;3.75;;;0.85;;
35223;SDS011;21367;51.930;8.112;2023-04-01T09:32:42;2.47;;;1.00;;
35223;SDS011;21367;51.930;8.112;2023-04-01T09:38:04;3.05;;;1.38;;
35223;SDS011;21367;51.930;8.112;2023-04-01T09:43:32;3.50;;;1.20;;
35223;SDS011;21367;51.930;8.112;2023-04-01T09:54:28;3.75;;;1.20;;
35223;SDS011;21367;51.930;8.112;2023-04-01T10:11:18;2.37;;;1.33;;
35223;SDS011;21367;51.930;8.112;2023-04-01T10:16:51;3.95;;;1.67;;
35223;SDS011;21367;51.930;8.112;2023-04-01T10:22:23;2.00;;;1.50;;
35223;SDS011;21367;51.930;8.112;2023-04-01T10:33:54;2.58;;;1.00;;
35223;SDS011;21367;51.930;8.112;2023-04-01T10:45:38;4.25;;;1.30;;
35223;SDS011;21367;51.930;8.112;2023-04-01T10:51:10;2.10;;;1.70;;
35223;SDS011;21367;51.930;8.112;2023-04-01T10:56:29;5.13;;;2.83;;
35223;SDS011;21367;51.930;8.112;2023-04-01T11:08:07;1.55;;;1.42;;
35223;SDS011;21367;51.930;8.112;2023-04-01T11:13:41;1.90;;;1.60;;
35223;SDS011;21367;51.930;8.112;2023-04-01T11:30:52;2.47;;;1.38;;
35223;SDS011;21367;51.930;8.112;2023-04-01T11:36:09;1.70;;;1.15;;
35223;SDS011;21367;51.930;8.112;2023-04-01T11:41:26;1.70;;;1.17;;
35223;SDS011;21367;51.930;8.112;2023-04-01T11:47:09;3.33;;;0.90;;
35223;SDS011;21367;51.930;8.112;2023-04-01T11:52:25;4.60;;;1.10;;
35223;SDS011;21367;51.930;8.112;2023-04-01T11:57:43;2.05;;;1.23;;
35223;SDS011;21367;51.930;8.112;2023-04-01T12:03:02;3.58;;;1.90;;
35223;SDS011;21367;51.930;8.112;2023-04-01T12:08:24;5.60;;;2.70;;
35223;SDS011;21367;51.930;8.112;2023-04-01T12:13:42;2.80;;;2.17;;
35223;SDS011;21367;51.930;8.112;2023-04-01T12:18:55;6.45;;;2.58;;
35223;SDS011;21367;51.930;8.112;2023-04-01T12:29:48;7.30;;;4.07;;
35223;SDS011;21367;51.930;8.112;2023-04-01T12:35:08;7.10;;;5.03;;
35223;SDS011;21367;51.930;8.112;2023-04-01T12:40:23;7.00;;;4.15;;
35223;SDS011;21367;51.930;8.112;2023-04-01T12:45:35;7.82;;;3.75;;
35223;SDS011;21367;51.930;8.112;2023-04-01T12:56:23;6.35;;;3.58;;
35223;SDS011;21367;51.930;8.112;2023-04-01T13:07:12;5.30;;;3.97;;
35223;SDS011;21367;51.930;8.112;2023-04-01T13:12:36;7.80;;;4.72;;
35223;SDS011;21367;51.930;8.112;2023-04-01T13:17:57;6.22;;;3.63;;
35223;SDS011;21367;51.930;8.112;2023-04-01T13:23:14;6.90;;;4.22;;
35223;SDS011;21367;51.930;8.112;2023-04-01T13:28:28;5.60;;;4.22;;
35223;SDS011;21367;51.930;8.112;2023-04-01T13:33:38;7.00;;;4.75;;
35223;SDS011;21367;51.930;8.112;2023-04-01T13:38:55;5.68;;;4.53;;
35223;SDS011;21367;51.930;8.112;2023-04-01T13:44:10;7.00;;;4.00;;
35223;SDS011;21367;51.930;8.112;2023-04-01T13:49:28;10.30;;;5.28;;
35223;SDS011;21367;51.930;8.112;2023-04-01T13:54:53;12.60;;;6.25;;
35223;SDS011;21367;51.930;8.112;2023-04-01T14:00:17;7.22;;;4.05;;
35223;SDS011;21367;51.930;8.112;2023-04-01T14:05:30;8.02;;;3.63;;
35223;SDS011;21367;51.930;8.112;2023-04-01T14:10:50;4.20;;;3.42;;
35223;SDS011;21367;51.930;8.112;2023-04-01T14:16:09;5.78;;;3.92;;
35223;SDS011;21367;51.930;8.112;2023-04-01T14:21:33;5.00;;;3.60;;
35223;SDS011;21367;51.930;8.112;2023-04-01T14:32:27;3.87;;;3.03;;
35223;SDS011;21367;51.930;8.112;2023-04-01T14:37:49;5.22;;;3.33;;
35223;SDS011;21367;51.930;8.112;2023-04-01T14:48:52;2.03;;;1.80;;
35223;SDS011;21367;51.930;8.112;2023-04-01T14:54:02;2.72;;;2.40;;
35223;SDS011;21367;51.930;8.112;2023-04-01T14:59:14;4.32;;;2.60;;
35223;SDS011;21367;51.930;8.112;2023-04-01T15:09:48;3.75;;;2.60;;
35223;SDS011;21367;51.930;8.112;2023-04-01T15:15:09;3.10;;;2.55;;
35223;SDS011;21367;51.930;8.112;2023-04-01T15:26:12;3.55;;;2.75;;
35223;SDS011;21367;51.930;8.112;2023-04-01T15:31:25;4.80;;;3.15;;
35223;SDS011;21367;51.930;8.112;2023-04-01T15:36:36;9.43;;;3.80;;
35223;SDS011;21367;51.930;8.112;2023-04-01T15:41:53;6.00;;;3.53;;
35223;SDS011;21367;51.930;8.112;2023-04-01T15:47:23;4.70;;;3.90;;
35223;SDS011;21367;51.930;8.112;2023-04-01T15:52:37;10.85;;;6.65;;
35223;SDS011;21367;51.930;8.112;2023-04-01T15:57:55;9.73;;;5.63;;
35223;SDS011;21367;51.930;8.112;2023-04-01T16:03:30;16.08;;;8.68;;
35223;SDS011;21367;51.930;8.112;2023-04-01T16:13:58;22.00;;;13.45;;
35223;SDS011;21367;51.930;8.112;2023-04-01T16:19:18;13.63;;;10.55;;
35223;SDS011;21367;51.930;8.112;2023-04-01T16:24:35;9.43;;;6.93;;
35223;SDS011;21367;51.930;8.112;2023-04-01T16:29:48;10.82;;;7.28;;
35223;SDS011;21367;51.930;8.112;2023-04-01T16:34:58;6.47;;;5.28;;
35223;SDS011;21367;51.930;8.112;2023-04-01T16:40:16;7.20;;;6.05;;
35223;SDS011;21367;51.930;8.112;2023-04-01T16:45:33;7.15;;;5.85;;
35223;SDS011;21367;51.930;8.112;2023-04-01T16:50:46;8.73;;;5.50;;
35223;SDS011;21367;51.930;8.112;2023-04-01T16:56:02;8.75;;;6.03;;
35223;SDS011;21367;51.930;8.112;2023-04-01T17:01:16;9.40;;;5.43;;
35223;SDS011;21367;51.930;8.112;2023-04-01T17:06:28;5.50;;;4.10;;
35223;SDS011;21367;51.930;8.112;2023-04-01T17:11:37;8.93;;;6.32;;
35223;SDS011;21367;51.930;8.112;2023-04-01T17:16:57;15.88;;;9.13;;
35223;SDS011;21367;51.930;8.112;2023-04-01T17:22:18;10.75;;;6.85;;
35223;SDS011;21367;51.930;8.112;2023-04-01T17:27:33;6.18;;;4.80;;
35223;SDS011;21367;51.930;8.112;2023-04-01T17:32:51;6.85;;;4.93;;
35223;SDS011;21367;51.930;8.112;2023-04-01T17:38:13;5.53;;;2.40;;
35223;SDS011;21367;51.930;8.112;2023-04-01T17:43:26;2.40;;;1.40;;
35223;SDS011;21367;51.930;8.112;2023-04-01T17:48:41;7.03;;;1.50;;
35223;SDS011;21367;51.930;8.112;2023-04-01T17:53:55;3.13;;;2.35;;
35223;SDS011;21367;51.930;8.112;2023-04-01T17:59:10;3.30;;;2.42;;
35223;SDS011;21367;51.930;8.112;2023-04-01T18:04:28;3.67;;;2.70;;
35223;SDS011;21367;51.930;8.112;2023-04-01T18:09:43;2.58;;;2.30;;
35223;SDS011;21367;51.930;8.112;2023-04-01T18:20:33;3.92;;;2.78;;
35223;SDS011;21367;51.930;8.112;2023-04-01T18:25:47;4.60;;;3.40;;
35223;SDS011;21367;51.930;8.112;2023-04-01T18:30:54;4.80;;;3.47;;
35223;SDS011;21367;51.930;8.112;2023-04-01T18:36:07;4.85;;;3.63;;
35223;SDS011;21367;51.930;8.112;2023-04-01T18:41:23;5.55;;;3.80;;
35223;SDS011;21367;51.930;8.112;2023-04-01T18:46:38;5.28;;;3.55;;
35223;SDS011;21367;51.930;8.112;2023-04-01T18:51:47;5.65;;;3.55;;
35223;SDS011;21367;51.930;8.112;2023-04-01T18:57:01;5.60;;;3.83;;
35223;SDS011;21367;51.930;8.112;2023-04-01T19:02:13;4.90;;;3.75;;
35223;SDS011;21367;51.930;8.112;2023-04-01T19:07:34;6.30;;;4.20;;
35223;SDS011;21367;51.930;8.112;2023-04-01T19:12:48;7.60;;;3.30;;
35223;SDS011;21367;51.930;8.112;2023-04-01T19:18:07;3.97;;;3.20;;
35223;SDS011;21367;51.930;8.112;2023-04-01T19:23:44;4.75;;;2.83;;
35223;SDS011;21367;51.930;8.112;2023-04-01T19:29:11;6.28;;;2.70;;
35223;SDS011;21367;51.930;8.112;2023-04-01T19:34:27;3.75;;;2.97;;
35223;SDS011;21367;51.930;8.112;2023-04-01T19:39:45;4.15;;;2.78;;
35223;SDS011;21367;51.930;8.112;2023-04-01T19:44:56;3.90;;;2.58;;
35223;SDS011;21367;51.930;8.112;2023-04-01T19:50:14;3.80;;;3.17;;
35223;SDS011;21367;51.930;8.112;2023-04-01T19:55:34;4.63;;;2.97;;
35223;SDS011;21367;51.930;8.112;2023-04-01T20:00:47;5.22;;;3.55;;
35223;SDS011;21367;51.930;8.112;2023-04-01T20:05:56;5.68;;;4.60;;
35223;SDS011;21367;51.930;8.112;2023-04-01T20:11:25;4.55;;;3.42;;
35223;SDS011;21367;51.930;8.112;2023-04-01T20:16:47;5.60;;;4.53;;
35223;SDS011;21367;51.930;8.112;2023-04-01T20:21:56;6.57;;;4.40;;
35223;SDS011;21367;51.930;8.112;2023-04-01T20:27:07;5.72;;;4.07;;
35223;SDS011;21367;51.930;8.112;2023-04-01T20:32:17;6.25;;;4.47;;
35223;SDS011;21367;51.930;8.112;2023-04-01T20:37:37;6.90;;;4.38;;
35223;SDS011;21367;51.930;8.112;2023-04-01T20:42:51;8.98;;;4.78;;
35223;SDS011;21367;51.930;8.112;2023-04-01T20:48:20;5.70;;;4.28;;
35223;SDS011;21367;51.930;8.112;2023-04-01T20:53:33;6.35;;;4.20;;
35223;SDS011;21367;51.930;8.112;2023-04-01T20:58:45;5.18;;;3.97;;
35223;SDS011;21367;51.930;8.112;2023-04-01T21:03:57;6.20;;;4.15;;
35223;SDS011;21367;51.930;8.112;2023-04-01T21:09:17;6.07;;;4.72;;
35223;SDS011;21367;51.930;8.112;2023-04-01T21:14:49;7.70;;;5.30;;
35223;SDS011;21367;51.930;8.112;2023-04-01T21:25:40;7.22;;;5.57;;
35223;SDS011;21367;51.930;8.112;2023-04-01T21:31:08;6.97;;;5.40;;
35223;SDS011;21367;51.930;8.112;2023-04-01T21:36:34;6.20;;;5.00;;
35223;SDS011;21367;51.930;8.112;2023-04-01T21:41:55;6.93;;;5.45;;
35223;SDS011;21367;51.930;8.112;2023-04-01T21:53:00;6.22;;;4.30;;
35223;SDS011;21367;51.930;8.112;2023-04-01T21:58:27;6.82;;;4.10;;
35223;SDS011;21367;51.930;8.112;2023-04-01T22:03:49;6.53;;;3.40;;
35223;SDS011;21367;51.930;8.112;2023-04-01T22:09:13;6.57;;;3.70;;
35223;SDS011;21367;51.930;8.112;2023-04-01T22:14:26;6.13;;;3.88;;
35223;SDS011;21367;51.930;8.112;2023-04-01T22:19:41;4.35;;;3.33;;
35223;SDS011;21367;51.930;8.112;2023-04-01T22:24:56;5.32;;;3.80;;
35223;SDS011;21367;51.930;8.112;2023-04-01T22:30:12;12.52;;;4.07;;
35223;SDS011;21367;51.930;8.112;2023-04-01T22:35:29;7.15;;;3.92;;
35223;SDS011;21367;51.930;8.112;2023-04-01T22:40:42;5.10;;;3.53;;
35223;SDS011;21367;51.930;8.112;2023-04-01T22:45:55;5.07;;;3.33;;
35223;SDS011;21367;51.930;8.112;2023-04-01T22:51:38;3.88;;;2.95;;
35223;SDS011;21367;51.930;8.112;2023-04-01T22:56:47;4.35;;;2.90;;
35223;SDS011;21367;51.930;8.112;2023-04-01T23:01:56;5.28;;;2.90;;
35223;SDS011;21367;51.930;8.112;2023-04-01T23:07:24;3.47;;;2.47;;
35223;SDS011;21367;51.930;8.112;2023-04-01T23:12:37;5.35;;;3.20;;
35223;SDS011;21367;51.930;8.112;2023-04-01T23:17:52;6.07;;;3.35;;
35223;SDS011;21367;51.930;8.112;2023-04-01T23:23:11;6.00;;;3.72;;
35223;SDS011;21367;51.930;8.112;2023-04-01T23:28:40;6.45;;;3.65;;
35223;SDS011;21367;51.930;8.112;2023-04-01T23:33:50;6.18;;;3.55;;
35223;SDS011;21367;51.930;8.112;2023-04-01T23:39:03;6.85;;;3.53;;
35223;SDS011;21367;51.930;8.112;2023-04-01T23:44:10;6.53;;;3.60;;
35223;SDS011;21367;51.930;8.112;2023-04-01T23:49:17;8.00;;;3.80;;
35223;SDS011;21367;51.930;8.112;2023-04-01T23:54:30;4.55;;;3.20;;
35223;SDS011;21367;51.930;8.112;2023-04-01T23:59:35;5.75;;;3.75;;
